createdAt,value
2017-08-01T00:00:22.427Z,11.30
2017-08-01T00:02:51.073Z,10.20
2017-08-01T00:05:19.524Z,9.67
2017-08-01T00:07:47.995Z,10.17
2017-08-01T00:10:16.433Z,9.93
2017-08-01T00:12:45.093Z,12.30
2017-08-01T00:15:13.782Z,8.67
2017-08-01T00:17:42.240Z,10.67
2017-08-01T00:20:10.675Z,12.13
2017-08-01T00:22:39.200Z,10.40
2017-08-01T00:25:07.992Z,11.53
2017-08-01T00:27:36.463Z,19.30
2017-08-01T00:30:04.951Z,10.57
2017-08-01T00:32:33.206Z,11.90
2017-08-01T00:35:01.679Z,11.33
2017-08-01T00:37:30.188Z,12.00
2017-08-01T00:39:58.826Z,10.03
2017-08-01T00:42:27.283Z,11.47
2017-08-01T00:44:55.756Z,11.80
2017-08-01T00:47:24.172Z,9.53
2017-08-01T00:49:52.614Z,13.63
2017-08-01T00:52:21.499Z,12.70
2017-08-01T00:54:49.981Z,10.53
2017-08-01T00:57:18.434Z,13.23
2017-08-01T00:59:46.907Z,11.80
2017-08-01T01:02:15.346Z,9.87
2017-08-01T01:04:43.777Z,10.03
2017-08-01T01:07:12.252Z,13.20
2017-08-01T01:09:40.693Z,17.73
2017-08-01T01:12:09.187Z,23.73
2017-08-01T01:14:37.338Z,17.53
2017-08-01T01:17:05.785Z,11.00
2017-08-01T01:19:34.233Z,12.83
2017-08-01T01:22:02.721Z,12.10
2017-08-01T01:24:31.210Z,11.50
2017-08-01T01:26:59.658Z,10.97
2017-08-01T01:29:28.133Z,12.33
2017-08-01T01:31:55.911Z,10.50
2017-08-01T01:34:24.017Z,9.23
2017-08-01T01:36:52.392Z,8.90
2017-08-01T01:39:20.137Z,11.03
2017-08-01T01:41:47.909Z,14.93
2017-08-01T01:44:16.069Z,14.73
2017-08-01T01:46:44.537Z,11.80
2017-08-01T01:49:12.657Z,12.47
2017-08-01T01:51:40.430Z,12.90
2017-08-01T01:54:08.182Z,11.37
2017-08-01T01:56:36.650Z,8.20
2017-08-01T01:59:05.133Z,15.90
2017-08-01T02:01:33.601Z,11.20
2017-08-01T02:04:02.291Z,12.03
2017-08-01T02:06:30.988Z,9.90
2017-08-01T02:08:59.431Z,12.40
2017-08-01T02:11:27.888Z,13.33
2017-08-01T02:13:56.228Z,14.80
2017-08-01T02:16:24.689Z,10.60
2017-08-01T02:18:53.130Z,16.87
2017-08-01T02:21:20.902Z,11.40
2017-08-01T02:23:49.018Z,21.47
2017-08-01T02:26:17.113Z,12.37
2017-08-01T02:28:45.239Z,12.27
2017-08-01T02:31:13.892Z,16.93
2017-08-01T02:33:42.354Z,13.30
2017-08-01T02:36:10.988Z,10.60
2017-08-01T02:38:39.429Z,15.70
2017-08-01T02:41:08.078Z,11.60
2017-08-01T02:43:36.590Z,13.57
2017-08-01T02:46:05.031Z,13.23
2017-08-01T02:48:33.486Z,12.83
2017-08-01T02:51:01.967Z,11.00
2017-08-01T02:53:30.418Z,12.93
2017-08-01T02:55:58.909Z,11.50
2017-08-01T02:58:27.382Z,18.67
2017-08-01T03:00:56.047Z,11.97
2017-08-01T03:03:24.491Z,16.90
2017-08-01T03:05:53.016Z,19.00
2017-08-01T03:08:21.441Z,16.30
2017-08-01T03:10:49.914Z,12.53
2017-08-01T03:13:18.379Z,13.00
2017-08-01T03:15:46.866Z,13.73
2017-08-01T03:18:15.341Z,11.60
2017-08-01T03:20:43.867Z,21.23
2017-08-01T03:23:12.944Z,12.40
2017-08-01T03:25:41.389Z,12.87
2017-08-01T03:28:09.900Z,15.77
2017-08-01T03:30:38.359Z,13.13
2017-08-01T03:33:06.815Z,13.20
2017-08-01T03:35:35.318Z,17.03
2017-08-01T03:38:03.801Z,11.60
2017-08-01T03:40:32.250Z,11.80
2017-08-01T03:43:00.854Z,12.27
2017-08-01T03:45:29.349Z,15.73
2017-08-01T03:47:57.778Z,10.90
2017-08-01T03:50:26.283Z,13.90
2017-08-01T03:52:54.742Z,11.83
2017-08-01T03:55:23.190Z,13.73
2017-08-01T03:57:51.706Z,13.13
2017-08-01T04:00:20.180Z,14.70
2017-08-01T04:02:48.630Z,16.77
2017-08-01T04:05:17.113Z,11.83
2017-08-01T04:07:45.541Z,13.30
2017-08-01T04:10:14.012Z,12.27
2017-08-01T04:12:42.489Z,12.50
2017-08-01T04:15:10.939Z,11.53
2017-08-01T04:17:39.443Z,11.77
2017-08-01T04:20:07.935Z,14.23
2017-08-01T04:22:36.401Z,13.73
2017-08-01T04:25:04.847Z,12.83
2017-08-01T04:27:33.386Z,11.80
2017-08-01T04:30:01.849Z,10.40
2017-08-01T04:32:30.282Z,12.10
2017-08-01T04:34:58.794Z,14.47
2017-08-01T04:37:27.227Z,11.70
2017-08-01T04:39:55.697Z,14.10
2017-08-01T04:42:24.222Z,11.10
2017-08-01T04:45:03.643Z,13.60
2017-08-01T04:47:32.151Z,9.87
2017-08-01T04:50:00.636Z,8.37
2017-08-01T04:52:29.183Z,13.43
2017-08-01T04:54:57.682Z,10.47
2017-08-01T04:57:27.146Z,9.07
2017-08-01T04:59:55.760Z,8.23
2017-08-01T05:02:24.359Z,10.00
2017-08-01T05:04:53.431Z,16.43
2017-08-01T05:07:21.995Z,11.07
2017-08-01T05:09:50.855Z,12.67
2017-08-01T05:12:19.401Z,8.53
2017-08-01T05:14:47.955Z,10.57
2017-08-01T05:17:16.479Z,10.90
2017-08-01T05:19:44.966Z,9.57
2017-08-01T05:22:13.454Z,9.10
2017-08-01T05:24:42.750Z,10.93
2017-08-01T05:27:11.229Z,12.10
2017-08-01T05:29:39.716Z,12.30
2017-08-01T05:32:08.533Z,11.23
2017-08-01T05:34:37.091Z,10.03
2017-08-01T05:37:05.606Z,8.50
2017-08-01T05:39:34.154Z,14.30
2017-08-01T05:42:02.621Z,16.90
2017-08-01T05:44:31.143Z,9.43
2017-08-01T05:47:03.138Z,10.40
2017-08-01T05:49:32.051Z,10.97
2017-08-01T05:52:00.690Z,16.60
2017-08-01T05:54:29.299Z,12.77
2017-08-01T05:56:57.821Z,8.60
2017-08-01T05:59:26.318Z,8.70
2017-08-01T06:01:54.766Z,13.63
2017-08-01T06:04:23.297Z,9.03
2017-08-01T06:06:51.855Z,8.50
2017-08-01T06:09:20.538Z,17.80
2017-08-01T06:11:49.011Z,8.50
2017-08-01T06:14:17.491Z,8.00
2017-08-01T06:16:45.880Z,9.10
2017-08-01T06:19:17.359Z,8.37
2017-08-01T06:21:45.909Z,8.47
2017-08-01T06:24:14.437Z,8.40
2017-08-01T06:26:53.017Z,7.73
2017-08-01T06:29:23.490Z,10.63
2017-08-01T06:31:54.398Z,8.30
2017-08-01T06:34:28.415Z,7.23
2017-08-01T06:36:57.747Z,8.40
2017-08-01T06:39:26.426Z,7.80
2017-08-01T06:41:55.002Z,10.10
2017-08-01T06:44:23.483Z,7.07
2017-08-01T06:46:52.060Z,6.40
2017-08-01T06:49:20.382Z,7.97
2017-08-01T06:51:49.923Z,7.80
2017-08-01T06:54:19.942Z,7.00
2017-08-01T06:56:51.834Z,6.70
2017-08-01T07:01:59.810Z,6.50
2017-08-01T07:04:30.625Z,7.50
2017-08-01T07:09:58.012Z,7.90
2017-08-01T07:12:38.211Z,5.27
2017-08-01T07:15:16.986Z,7.10
2017-08-01T07:20:20.601Z,6.77
2017-08-01T07:22:50.430Z,6.77
2017-08-01T07:28:01.439Z,5.60
2017-08-01T07:33:38.847Z,4.97
2017-08-01T07:36:07.839Z,7.40
2017-08-01T07:38:36.320Z,5.30
2017-08-01T07:41:04.880Z,5.07
2017-08-01T07:43:33.380Z,4.80
2017-08-01T07:46:01.794Z,5.37
2017-08-01T07:48:30.252Z,5.83
2017-08-01T07:50:58.727Z,4.57
2017-08-01T07:53:27.214Z,7.40
2017-08-01T07:55:55.677Z,4.30
2017-08-01T07:58:24.147Z,7.43
2017-08-01T08:00:52.578Z,7.33
2017-08-01T08:03:21.111Z,4.20
2017-08-01T08:05:49.562Z,5.13
2017-08-01T08:08:17.986Z,6.83
2017-08-01T08:10:46.498Z,5.53
2017-08-01T08:13:14.927Z,5.23
2017-08-01T08:15:43.408Z,6.40
2017-08-01T08:18:11.915Z,6.27
2017-08-01T08:20:40.385Z,13.30
2017-08-01T08:23:08.811Z,7.40
2017-08-01T08:25:37.312Z,7.03
2017-08-01T08:28:05.737Z,5.83
2017-08-01T08:30:34.194Z,6.13
2017-08-01T08:33:02.676Z,4.30
2017-08-01T08:35:31.154Z,4.93
2017-08-01T08:37:59.598Z,7.40
2017-08-01T08:40:28.114Z,6.20
2017-08-01T08:42:56.530Z,8.43
2017-08-01T08:45:24.985Z,6.50
2017-08-01T08:47:53.464Z,5.10
2017-08-01T08:50:21.970Z,6.90
2017-08-01T08:52:50.414Z,4.57
2017-08-01T08:55:18.917Z,4.90
2017-08-01T08:57:47.339Z,5.50
2017-08-01T09:00:15.781Z,4.77
2017-08-01T09:02:44.221Z,22.83
2017-08-01T09:05:12.631Z,4.50
2017-08-01T09:07:41.033Z,6.70
2017-08-01T09:10:09.458Z,4.20
2017-08-01T09:12:37.918Z,4.77
2017-08-01T09:15:06.384Z,4.67
2017-08-01T09:17:34.798Z,4.50
2017-08-01T09:20:03.235Z,4.20
2017-08-01T09:22:31.641Z,4.00
2017-08-01T09:25:00.085Z,3.87
2017-08-01T09:27:28.501Z,7.70
2017-08-01T09:29:56.914Z,3.73
2017-08-01T09:32:25.388Z,5.13
2017-08-01T09:34:53.804Z,4.27
2017-08-01T09:37:22.220Z,3.67
2017-08-01T09:39:50.720Z,4.30
2017-08-01T09:42:19.145Z,4.13
2017-08-01T09:44:47.370Z,4.03
2017-08-01T09:47:15.861Z,3.73
2017-08-01T09:49:44.294Z,4.07
2017-08-01T09:52:12.755Z,5.63
2017-08-01T09:54:41.222Z,5.50
2017-08-01T09:57:09.687Z,3.93
2017-08-01T09:59:38.120Z,6.40
2017-08-01T10:02:06.571Z,4.47
2017-08-01T10:04:35.022Z,4.00
2017-08-01T10:07:03.459Z,4.20
2017-08-01T10:09:31.934Z,4.33
2017-08-01T10:12:00.447Z,3.83
2017-08-01T10:14:28.909Z,5.60
2017-08-01T10:16:57.389Z,4.20
2017-08-01T10:19:25.807Z,4.77
2017-08-01T10:21:54.334Z,3.70
2017-08-01T10:24:22.831Z,4.07
2017-08-01T10:26:51.124Z,4.10
2017-08-01T10:29:19.605Z,3.57
2017-08-01T10:31:48.119Z,4.70
2017-08-01T10:34:16.632Z,7.73
2017-08-01T10:36:45.138Z,4.13
2017-08-01T10:39:13.662Z,4.47
2017-08-01T10:41:42.238Z,4.70
2017-08-01T10:44:10.756Z,6.90
2017-08-01T10:46:39.263Z,5.20
2017-08-01T10:49:07.819Z,4.67
2017-08-01T10:51:36.289Z,3.50
2017-08-01T10:54:04.767Z,4.03
2017-08-01T10:56:33.274Z,4.80
2017-08-01T10:59:01.763Z,3.60
2017-08-01T11:01:30.267Z,4.80
2017-08-01T11:03:58.798Z,7.03
2017-08-01T11:06:27.305Z,2.93
2017-08-01T11:08:55.803Z,3.20
2017-08-01T11:11:24.346Z,8.83
2017-08-01T11:13:59.481Z,3.10
2017-08-01T11:16:27.998Z,2.87
2017-08-01T11:18:56.522Z,2.80
2017-08-01T11:21:25.110Z,5.40
2017-08-01T11:23:53.722Z,4.23
2017-08-01T11:26:22.263Z,3.00
2017-08-01T11:28:50.940Z,3.20
2017-08-01T11:31:19.433Z,4.27
2017-08-01T11:33:48.009Z,3.63
2017-08-01T11:36:16.556Z,4.37
2017-08-01T11:38:45.090Z,4.43
2017-08-01T11:41:13.578Z,4.70
2017-08-01T11:43:42.087Z,3.73
2017-08-01T11:46:11.411Z,4.80
2017-08-01T11:48:39.912Z,4.33
2017-08-01T11:51:08.281Z,6.23
2017-08-01T11:53:36.806Z,8.00
2017-08-01T11:56:06.122Z,5.13
2017-08-01T11:58:44.508Z,4.20
2017-08-01T12:01:13.158Z,5.37
2017-08-01T12:03:41.781Z,6.10
2017-08-01T12:06:10.308Z,6.40
2017-08-01T12:08:38.911Z,4.23
2017-08-01T12:11:07.742Z,4.77
2017-08-01T12:13:37.042Z,4.40
2017-08-01T12:16:06.336Z,9.37
2017-08-01T12:21:13.221Z,5.10
2017-08-01T12:23:42.641Z,5.30
2017-08-01T12:26:11.168Z,4.53
2017-08-01T12:28:39.860Z,4.97
2017-08-01T12:31:08.409Z,4.40
2017-08-01T12:33:37.992Z,7.30
2017-08-01T12:36:06.526Z,4.40
2017-08-01T12:38:35.090Z,5.27
2017-08-01T12:41:03.595Z,5.20
2017-08-01T12:43:32.142Z,7.03
2017-08-01T12:46:00.660Z,4.80
2017-08-01T12:48:29.157Z,5.53
2017-08-01T12:50:57.616Z,4.50
2017-08-01T12:53:26.099Z,4.70
2017-08-01T12:55:54.594Z,6.80
2017-08-01T12:58:23.132Z,5.23
2017-08-01T13:00:51.587Z,4.93
2017-08-01T13:03:20.063Z,7.53
2017-08-01T13:05:48.619Z,5.30
2017-08-01T13:08:17.807Z,8.37
2017-08-01T13:10:46.360Z,6.83
2017-08-01T13:13:14.859Z,5.13
2017-08-01T13:15:43.208Z,3.90
2017-08-01T13:18:11.708Z,4.93
2017-08-01T13:20:40.263Z,4.40
2017-08-01T13:23:08.757Z,5.07
2017-08-01T13:25:37.277Z,5.60
2017-08-01T13:28:06.014Z,4.53
2017-08-01T13:30:35.038Z,5.40
2017-08-01T13:33:03.742Z,4.83
2017-08-01T13:35:32.340Z,5.40
2017-08-01T13:38:00.990Z,4.20
2017-08-01T13:40:29.877Z,5.17
2017-08-01T13:42:58.320Z,6.30
2017-08-01T13:48:03.924Z,8.00
2017-08-01T13:50:32.683Z,10.13
2017-08-01T13:53:01.246Z,5.73
2017-08-01T13:55:30.022Z,8.53
2017-08-01T14:01:19.523Z,4.60
2017-08-01T14:03:48.103Z,7.17
2017-08-01T14:06:17.306Z,4.30
2017-08-01T14:08:45.924Z,4.97
2017-08-01T14:11:14.484Z,5.50
2017-08-01T14:13:44.443Z,4.37
2017-08-01T14:16:13.788Z,5.70
2017-08-01T14:18:43.002Z,6.73
2017-08-01T14:21:11.698Z,7.70
2017-08-01T14:23:40.314Z,6.20
2017-08-01T14:26:08.887Z,4.57
2017-08-01T14:28:37.549Z,5.10
2017-08-01T14:31:06.127Z,4.67
2017-08-01T14:33:34.749Z,7.67
2017-08-01T14:36:03.506Z,5.80
2017-08-01T14:38:32.087Z,5.00
2017-08-01T14:41:01.690Z,5.50
2017-08-01T14:43:30.415Z,9.53
2017-08-01T14:45:58.989Z,10.33
2017-08-01T14:48:28.358Z,5.60
2017-08-01T14:50:57.026Z,5.20
2017-08-01T14:53:25.634Z,8.70
2017-08-01T14:55:54.244Z,8.03
2017-08-01T14:58:22.579Z,5.20
2017-08-01T15:00:51.538Z,6.03
2017-08-01T15:03:21.551Z,6.37
2017-08-01T15:05:50.121Z,10.43
2017-08-01T15:08:18.686Z,6.47
2017-08-01T15:10:48.341Z,8.13
2017-08-01T15:13:17.103Z,5.53
2017-08-01T15:15:46.412Z,7.73
2017-08-01T15:18:19.719Z,5.83
2017-08-01T15:20:50.365Z,11.37
2017-08-01T15:23:22.967Z,5.27
2017-08-01T15:25:57.224Z,8.67
2017-08-01T15:28:29.697Z,5.50
2017-08-01T15:30:59.136Z,6.90
2017-08-01T15:33:38.762Z,6.03
2017-08-01T15:38:46.620Z,8.07
2017-08-01T15:41:16.958Z,9.63
2017-08-01T15:43:46.346Z,6.60
2017-08-01T15:46:25.207Z,6.93
2017-08-01T15:48:53.383Z,7.63
2017-08-01T15:57:39.091Z,16.00
2017-08-01T16:00:20.942Z,7.13
2017-08-01T16:09:32.850Z,7.63
2017-08-01T16:12:28.751Z,9.50
2017-08-01T16:15:07.141Z,6.93
2017-08-01T16:17:35.679Z,8.40
2017-08-01T16:20:07.546Z,12.77
2017-08-01T16:22:51.611Z,8.40
2017-08-01T16:25:21.051Z,7.47
2017-08-01T16:27:51.672Z,7.90
2017-08-01T16:30:20.289Z,8.53
2017-08-01T16:32:50.571Z,8.97
2017-08-01T16:35:20.553Z,8.13
2017-08-01T16:37:53.207Z,8.20
2017-08-01T16:40:27.333Z,7.47
2017-08-01T16:43:13.501Z,8.37
2017-08-01T16:45:54.345Z,7.40
2017-08-01T16:48:25.978Z,7.67
2017-08-01T16:56:50.164Z,8.23
2017-08-01T16:59:21.692Z,8.73
2017-08-01T17:01:51.694Z,10.43
2017-08-01T17:04:31.573Z,9.07
2017-08-01T17:07:00.202Z,8.90
2017-08-01T17:12:23.306Z,9.60
2017-08-01T17:14:52.184Z,8.77
2017-08-01T17:17:21.550Z,9.40
2017-08-01T17:19:50.255Z,9.87
2017-08-01T17:22:35.755Z,9.73
2017-08-01T17:25:07.168Z,9.83
2017-08-01T17:30:28.546Z,10.07
2017-08-01T17:32:57.589Z,10.83
2017-08-01T17:35:30.988Z,10.70
2017-08-01T17:43:40.994Z,10.13
2017-08-01T17:49:47.330Z,11.57
2017-08-01T18:05:21.180Z,13.17
2017-08-01T18:17:49.374Z,12.07
2017-08-01T18:20:17.943Z,13.17
2017-08-01T18:22:46.463Z,11.67
2017-08-01T18:25:20.606Z,13.67
2017-08-01T18:28:05.445Z,16.77
2017-08-01T18:30:34.128Z,15.23
2017-08-01T18:33:20.987Z,16.43
2017-08-01T18:38:41.984Z,17.10
2017-08-01T18:57:29.207Z,14.37
2017-08-01T20:50:22.336Z,18.17
2017-08-01T21:00:49.783Z,20.90
2017-08-01T21:03:21.018Z,18.73
2017-08-01T21:05:52.327Z,18.40
2017-08-01T21:08:24.283Z,18.80
2017-08-01T21:10:53.999Z,17.10
2017-08-01T21:13:23.942Z,19.53
2017-08-01T21:15:55.310Z,19.70
2017-08-01T21:18:25.843Z,18.47
2017-08-01T21:20:59.493Z,16.23
2017-08-01T21:26:51.901Z,18.77
2017-08-01T21:29:21.917Z,18.17
2017-08-01T21:31:54.834Z,20.50
2017-08-01T21:34:26.074Z,18.97
2017-08-01T21:36:57.320Z,20.70
2017-08-01T21:39:28.258Z,19.17
2017-08-01T21:41:58.226Z,18.37
2017-08-01T21:44:28.613Z,20.60
2017-08-01T21:46:59.531Z,21.40
2017-08-01T21:49:29.986Z,19.33
2017-08-01T21:51:59.145Z,19.60
2017-08-01T21:54:28.621Z,22.93
2017-08-01T21:56:58.790Z,21.20
2017-08-01T21:59:28.114Z,19.63
2017-08-01T22:01:58.260Z,20.83
2017-08-01T22:04:28.360Z,23.10
2017-08-01T22:06:57.443Z,20.57
2017-08-01T22:09:27.094Z,20.67
2017-08-01T22:11:56.181Z,18.00
2017-08-01T22:17:02.343Z,24.87
2017-08-01T22:19:33.196Z,22.73
2017-08-01T22:22:04.138Z,20.03
2017-08-01T22:24:40.956Z,21.83
2017-08-01T22:27:12.143Z,21.50
2017-08-01T22:30:08.713Z,21.40
2017-08-01T23:47:48.717Z,23.30
2017-08-01T23:53:05.191Z,23.60
2017-08-01T23:58:22.067Z,30.43
